sensor_id;sensor_type;location;lat;lon;timestamp;temperature;humidity
22742;DHT22;11538;48.884;8.696;2023-07-09T00:02:24;23.40;99.90
22742;DHT22;11538;48.884;8.696;2023-07-09T00:04:52;23.30;99.90
22742;DHT22;11538;48.884;8.696;2023-07-09T00:09:55;23.20;99.90
22742;DHT22;11538;48.884;8.696;2023-07-09T00:12:22;23.20;99.90
22742;DHT22;11538;48.884;8.696;2023-07-09T00:14:50;23.10;99.90
22742;DHT22;11538;48.884;8.696;2023-07-09T00:17:27;23.10;99.90
22742;DHT22;11538;48.884;8.696;2023-07-09T00:19:57;23.00;99.90
22742;DHT22;11538;48.884;8.696;2023-07-09T00:22:24;23.00;99.90
22742;DHT22;11538;48.884;8.696;2023-07-09T00:24:53;23.00;99.90
22742;DHT22;11538;48.884;8.696;2023-07-09T00:27:25;23.00;99.90
22742;DHT22;11538;48.884;8.696;2023-07-09T00:29:55;23.00;99.90
22742;DHT22;11538;48.884;8.696;2023-07-09T00:32:22;23.00;99.90
22742;DHT22;11538;48.884;8.696;2023-07-09T00:34:49;23.00;99.90
22742;DHT22;11538;48.884;8.696;2023-07-09T00:37:20;23.00;99.90
22742;DHT22;11538;48.884;8.696;2023-07-09T00:39:52;23.00;99.90
22742;DHT22;11538;48.884;8.696;2023-07-09T00:42:21;23.00;99.90
22742;DHT22;11538;48.884;8.696;2023-07-09T00:44:52;22.90;99.90
22742;DHT22;11538;48.884;8.696;2023-07-09T00:47:34;22.90;99.90
22742;DHT22;11538;48.884;8.696;2023-07-09T00:53:28;22.80;99.90
22742;DHT22;11538;48.884;8.696;2023-07-09T00:56:06;22.80;99.90
22742;DHT22;11538;48.884;8.696;2023-07-09T00:58:38;22.80;99.90
22742;DHT22;11538;48.884;8.696;2023-07-09T01:01:09;22.80;99.90
22742;DHT22;11538;48.884;8.696;2023-07-09T01:03:45;22.70;99.90
22742;DHT22;11538;48.884;8.696;2023-07-09T01:06:18;22.70;99.90
22742;DHT22;11538;48.884;8.696;2023-07-09T01:08:51;22.60;99.90
22742;DHT22;11538;48.884;8.696;2023-07-09T01:11:38;22.60;99.90
22742;DHT22;11538;48.884;8.696;2023-07-09T01:14:08;22.60;99.90
22742;DHT22;11538;48.884;8.696;2023-07-09T01:16:42;22.60;99.90
22742;DHT22;11538;48.884;8.696;2023-07-09T01:19:13;22.50;99.90
22742;DHT22;11538;48.884;8.696;2023-07-09T01:21:43;22.50;99.90
22742;DHT22;11538;48.884;8.696;2023-07-09T01:24:15;22.50;99.90
22742;DHT22;11538;48.884;8.696;2023-07-09T01:27:03;22.50;99.90
22742;DHT22;11538;48.884;8.696;2023-07-09T01:29:32;22.40;99.90
22742;DHT22;11538;48.884;8.696;2023-07-09T01:32:02;22.40;99.90
22742;DHT22;11538;48.884;8.696;2023-07-09T01:34:30;22.30;99.90
22742;DHT22;11538;48.884;8.696;2023-07-09T01:36:57;22.30;99.90
22742;DHT22;11538;48.884;8.696;2023-07-09T01:39:25;22.30;99.90
22742;DHT22;11538;48.884;8.696;2023-07-09T01:41:55;22.30;99.90
22742;DHT22;11538;48.884;8.696;2023-07-09T01:44:23;22.30;99.90
22742;DHT22;11538;48.884;8.696;2023-07-09T01:46:50;22.30;99.90
22742;DHT22;11538;48.884;8.696;2023-07-09T01:49:17;22.30;99.90
22742;DHT22;11538;48.884;8.696;2023-07-09T01:51:44;22.30;99.90
22742;DHT22;11538;48.884;8.696;2023-07-09T01:54:13;22.30;99.90
22742;DHT22;11538;48.884;8.696;2023-07-09T01:56:43;22.30;99.90
22742;DHT22;11538;48.884;8.696;2023-07-09T01:59:10;22.20;99.90
22742;DHT22;11538;48.884;8.696;2023-07-09T02:01:37;22.20;99.90
22742;DHT22;11538;48.884;8.696;2023-07-09T02:04:05;22.20;99.90
22742;DHT22;11538;48.884;8.696;2023-07-09T02:06:32;22.10;99.90
22742;DHT22;11538;48.884;8.696;2023-07-09T02:08:59;22.20;99.90
22742;DHT22;11538;48.884;8.696;2023-07-09T02:11:25;22.10;99.90
22742;DHT22;11538;48.884;8.696;2023-07-09T02:13:52;22.20;99.90
22742;DHT22;11538;48.884;8.696;2023-07-09T02:16:19;22.20;99.90
22742;DHT22;11538;48.884;8.696;2023-07-09T02:18:46;22.20;99.90
22742;DHT22;11538;48.884;8.696;2023-07-09T02:21:13;22.10;99.90
22742;DHT22;11538;48.884;8.696;2023-07-09T02:23:40;22.20;99.90
22742;DHT22;11538;48.884;8.696;2023-07-09T02:26:07;22.20;99.90
22742;DHT22;11538;48.884;8.696;2023-07-09T02:28:34;22.10;99.90
22742;DHT22;11538;48.884;8.696;2023-07-09T02:31:01;22.10;99.90
22742;DHT22;11538;48.884;8.696;2023-07-09T02:33:28;22.10;99.90
22742;DHT22;11538;48.884;8.696;2023-07-09T02:35:59;22.00;99.90
22742;DHT22;11538;48.884;8.696;2023-07-09T02:38:27;22.00;99.90
22742;DHT22;11538;48.884;8.696;2023-07-09T02:40:53;21.90;99.90
22742;DHT22;11538;48.884;8.696;2023-07-09T02:43:20;21.90;99.90
22742;DHT22;11538;48.884;8.696;2023-07-09T02:45:47;21.90;99.90
22742;DHT22;11538;48.884;8.696;2023-07-09T02:48:14;21.90;99.90
22742;DHT22;11538;48.884;8.696;2023-07-09T02:50:41;21.90;99.90
22742;DHT22;11538;48.884;8.696;2023-07-09T02:53:08;21.90;99.90
22742;DHT22;11538;48.884;8.696;2023-07-09T02:55:35;21.90;99.90
22742;DHT22;11538;48.884;8.696;2023-07-09T02:58:02;21.90;99.90
22742;DHT22;11538;48.884;8.696;2023-07-09T03:00:29;21.90;99.90
22742;DHT22;11538;48.884;8.696;2023-07-09T03:02:55;21.80;99.90
22742;DHT22;11538;48.884;8.696;2023-07-09T03:05:22;21.80;99.90
22742;DHT22;11538;48.884;8.696;2023-07-09T03:07:49;21.80;99.90
22742;DHT22;11538;48.884;8.696;2023-07-09T03:10:16;21.80;99.90
22742;DHT22;11538;48.884;8.696;2023-07-09T03:12:43;21.80;99.90
22742;DHT22;11538;48.884;8.696;2023-07-09T03:15:11;21.70;99.90
22742;DHT22;11538;48.884;8.696;2023-07-09T03:17:38;21.70;99.90
22742;DHT22;11538;48.884;8.696;2023-07-09T03:20:05;21.70;99.90
22742;DHT22;11538;48.884;8.696;2023-07-09T03:22:34;21.70;99.90
22742;DHT22;11538;48.884;8.696;2023-07-09T03:25:01;21.80;99.90
22742;DHT22;11538;48.884;8.696;2023-07-09T03:27:28;21.80;99.90
22742;DHT22;11538;48.884;8.696;2023-07-09T03:29:55;21.80;99.90
22742;DHT22;11538;48.884;8.696;2023-07-09T03:32:21;21.70;99.90
22742;DHT22;11538;48.884;8.696;2023-07-09T03:34:48;21.70;99.90
22742;DHT22;11538;48.884;8.696;2023-07-09T03:37:15;21.70;99.90
22742;DHT22;11538;48.884;8.696;2023-07-09T03:39:42;21.70;99.90
22742;DHT22;11538;48.884;8.696;2023-07-09T03:42:09;21.70;99.90
22742;DHT22;11538;48.884;8.696;2023-07-09T03:44:38;21.70;99.90
22742;DHT22;11538;48.884;8.696;2023-07-09T03:47:05;21.60;99.90
22742;DHT22;11538;48.884;8.696;2023-07-09T03:49:33;21.60;99.90
22742;DHT22;11538;48.884;8.696;2023-07-09T03:52:00;21.60;99.90
22742;DHT22;11538;48.884;8.696;2023-07-09T03:54:26;21.60;99.90
22742;DHT22;11538;48.884;8.696;2023-07-09T03:56:54;21.50;99.90
22742;DHT22;11538;48.884;8.696;2023-07-09T03:59:21;21.50;99.90
22742;DHT22;11538;48.884;8.696;2023-07-09T04:01:47;21.50;99.90
22742;DHT22;11538;48.884;8.696;2023-07-09T04:04:15;21.50;99.90
22742;DHT22;11538;48.884;8.696;2023-07-09T04:06:42;21.50;99.90
22742;DHT22;11538;48.884;8.696;2023-07-09T04:09:09;21.50;99.90
22742;DHT22;11538;48.884;8.696;2023-07-09T04:11:36;21.50;99.90
22742;DHT22;11538;48.884;8.696;2023-07-09T04:14:03;21.50;99.90
22742;DHT22;11538;48.884;8.696;2023-07-09T04:16:29;21.50;99.90
22742;DHT22;11538;48.884;8.696;2023-07-09T04:18:56;21.50;99.90
22742;DHT22;11538;48.884;8.696;2023-07-09T04:21:24;21.50;99.90
22742;DHT22;11538;48.884;8.696;2023-07-09T04:23:50;21.60;99.90
22742;DHT22;11538;48.884;8.696;2023-07-09T04:26:17;21.60;99.90
22742;DHT22;11538;48.884;8.696;2023-07-09T04:28:44;21.60;99.90
22742;DHT22;11538;48.884;8.696;2023-07-09T04:31:11;21.60;99.90
22742;DHT22;11538;48.884;8.696;2023-07-09T04:33:38;21.50;99.90
22742;DHT22;11538;48.884;8.696;2023-07-09T04:36:05;21.40;99.90
22742;DHT22;11538;48.884;8.696;2023-07-09T04:38:33;21.40;99.90
22742;DHT22;11538;48.884;8.696;2023-07-09T04:41:00;21.50;99.90
22742;DHT22;11538;48.884;8.696;2023-07-09T04:43:27;21.50;99.90
22742;DHT22;11538;48.884;8.696;2023-07-09T04:45:54;21.50;99.90
22742;DHT22;11538;48.884;8.696;2023-07-09T04:48:21;21.60;99.90
22742;DHT22;11538;48.884;8.696;2023-07-09T04:50:48;21.50;99.90
22742;DHT22;11538;48.884;8.696;2023-07-09T04:53:16;21.50;99.90
22742;DHT22;11538;48.884;8.696;2023-07-09T04:55:44;21.50;99.90
22742;DHT22;11538;48.884;8.696;2023-07-09T04:58:11;21.50;99.90
22742;DHT22;11538;48.884;8.696;2023-07-09T05:00:38;21.50;99.90
22742;DHT22;11538;48.884;8.696;2023-07-09T05:03:04;21.50;99.90
22742;DHT22;11538;48.884;8.696;2023-07-09T05:05:32;21.60;99.90
22742;DHT22;11538;48.884;8.696;2023-07-09T05:07:59;21.60;99.90
22742;DHT22;11538;48.884;8.696;2023-07-09T05:10:25;21.60;99.90
22742;DHT22;11538;48.884;8.696;2023-07-09T05:12:54;21.60;99.90
22742;DHT22;11538;48.884;8.696;2023-07-09T05:15:22;21.50;99.90
22742;DHT22;11538;48.884;8.696;2023-07-09T05:17:50;21.50;99.90
22742;DHT22;11538;48.884;8.696;2023-07-09T05:20:16;21.50;99.90
22742;DHT22;11538;48.884;8.696;2023-07-09T05:22:43;21.60;99.90
22742;DHT22;11538;48.884;8.696;2023-07-09T05:25:10;21.60;99.90
22742;DHT22;11538;48.884;8.696;2023-07-09T05:27:38;21.70;99.90
22742;DHT22;11538;48.884;8.696;2023-07-09T05:30:06;21.70;99.90
22742;DHT22;11538;48.884;8.696;2023-07-09T05:32:33;21.80;99.90
22742;DHT22;11538;48.884;8.696;2023-07-09T05:35:00;21.80;99.90
22742;DHT22;11538;48.884;8.696;2023-07-09T05:37:27;21.80;99.90
22742;DHT22;11538;48.884;8.696;2023-07-09T05:39:54;21.90;99.90
22742;DHT22;11538;48.884;8.696;2023-07-09T05:42:22;22.00;99.90
22742;DHT22;11538;48.884;8.696;2023-07-09T05:44:50;22.00;99.90
22742;DHT22;11538;48.884;8.696;2023-07-09T05:47:18;22.10;99.90
22742;DHT22;11538;48.884;8.696;2023-07-09T05:49:45;22.20;99.90
22742;DHT22;11538;48.884;8.696;2023-07-09T05:52:17;22.30;99.90
22742;DHT22;11538;48.884;8.696;2023-07-09T05:54:45;22.40;99.90
22742;DHT22;11538;48.884;8.696;2023-07-09T05:57:12;22.40;99.90
22742;DHT22;11538;48.884;8.696;2023-07-09T05:59:39;22.50;99.90
22742;DHT22;11538;48.884;8.696;2023-07-09T06:02:11;22.50;99.90
22742;DHT22;11538;48.884;8.696;2023-07-09T06:04:39;22.50;99.90
22742;DHT22;11538;48.884;8.696;2023-07-09T06:07:07;22.50;99.90
22742;DHT22;11538;48.884;8.696;2023-07-09T06:09:35;22.60;99.90
22742;DHT22;11538;48.884;8.696;2023-07-09T06:12:03;22.70;99.90
22742;DHT22;11538;48.884;8.696;2023-07-09T06:14:32;22.70;99.90
22742;DHT22;11538;48.884;8.696;2023-07-09T06:17:00;22.80;99.90
22742;DHT22;11538;48.884;8.696;2023-07-09T06:19:28;22.90;99.90
22742;DHT22;11538;48.884;8.696;2023-07-09T06:21:56;23.00;99.90
22742;DHT22;11538;48.884;8.696;2023-07-09T06:24:23;23.10;99.90
22742;DHT22;11538;48.884;8.696;2023-07-09T06:26:50;23.10;99.90
22742;DHT22;11538;48.884;8.696;2023-07-09T06:29:17;23.20;99.90
22742;DHT22;11538;48.884;8.696;2023-07-09T06:31:44;23.30;99.90
22742;DHT22;11538;48.884;8.696;2023-07-09T06:34:11;23.40;99.90
22742;DHT22;11538;48.884;8.696;2023-07-09T06:36:40;23.40;99.90
22742;DHT22;11538;48.884;8.696;2023-07-09T06:39:10;23.50;99.90
22742;DHT22;11538;48.884;8.696;2023-07-09T06:41:37;23.60;99.90
22742;DHT22;11538;48.884;8.696;2023-07-09T06:44:06;23.70;99.90
22742;DHT22;11538;48.884;8.696;2023-07-09T06:46:35;23.80;99.90
22742;DHT22;11538;48.884;8.696;2023-07-09T06:49:03;23.80;99.90
22742;DHT22;11538;48.884;8.696;2023-07-09T06:51:33;24.00;99.90
22742;DHT22;11538;48.884;8.696;2023-07-09T06:54:00;24.00;99.90
22742;DHT22;11538;48.884;8.696;2023-07-09T06:56:29;24.10;99.90
22742;DHT22;11538;48.884;8.696;2023-07-09T06:58:56;24.20;99.90
22742;DHT22;11538;48.884;8.696;2023-07-09T07:01:23;24.30;99.90
22742;DHT22;11538;48.884;8.696;2023-07-09T07:03:50;24.40;99.90
22742;DHT22;11538;48.884;8.696;2023-07-09T07:06:17;24.50;99.90
22742;DHT22;11538;48.884;8.696;2023-07-09T07:08:45;24.60;99.90
22742;DHT22;11538;48.884;8.696;2023-07-09T07:11:12;24.70;99.90
22742;DHT22;11538;48.884;8.696;2023-07-09T07:13:39;24.80;99.90
22742;DHT22;11538;48.884;8.696;2023-07-09T07:16:10;24.90;99.90
22742;DHT22;11538;48.884;8.696;2023-07-09T07:18:41;25.00;99.90
22742;DHT22;11538;48.884;8.696;2023-07-09T07:21:08;25.20;99.90
22742;DHT22;11538;48.884;8.696;2023-07-09T07:23:35;25.30;99.90
22742;DHT22;11538;48.884;8.696;2023-07-09T07:26:05;25.40;99.90
22742;DHT22;11538;48.884;8.696;2023-07-09T07:28:35;25.50;99.90
22742;DHT22;11538;48.884;8.696;2023-07-09T07:31:04;25.70;99.90
22742;DHT22;11538;48.884;8.696;2023-07-09T07:33:39;25.80;99.90
22742;DHT22;11538;48.884;8.696;2023-07-09T07:36:08;26.00;99.90
22742;DHT22;11538;48.884;8.696;2023-07-09T07:38:39;26.10;99.90
22742;DHT22;11538;48.884;8.696;2023-07-09T07:41:06;26.30;99.90
22742;DHT22;11538;48.884;8.696;2023-07-09T07:43:33;26.40;99.90
22742;DHT22;11538;48.884;8.696;2023-07-09T07:46:00;26.60;99.90
22742;DHT22;11538;48.884;8.696;2023-07-09T07:48:28;26.70;99.90
22742;DHT22;11538;48.884;8.696;2023-07-09T07:51:02;26.90;99.90
22742;DHT22;11538;48.884;8.696;2023-07-09T07:53:31;27.10;99.90
22742;DHT22;11538;48.884;8.696;2023-07-09T07:55:58;27.20;99.90
22742;DHT22;11538;48.884;8.696;2023-07-09T07:58:28;27.30;99.90
22742;DHT22;11538;48.884;8.696;2023-07-09T08:00:57;27.50;99.90
22742;DHT22;11538;48.884;8.696;2023-07-09T08:03:24;27.70;99.90
22742;DHT22;11538;48.884;8.696;2023-07-09T08:05:52;27.90;99.90
22742;DHT22;11538;48.884;8.696;2023-07-09T08:08:19;28.00;99.90
22742;DHT22;11538;48.884;8.696;2023-07-09T08:10:49;28.20;99.90
22742;DHT22;11538;48.884;8.696;2023-07-09T08:13:18;28.40;99.90
22742;DHT22;11538;48.884;8.696;2023-07-09T08:15:45;28.50;99.90
22742;DHT22;11538;48.884;8.696;2023-07-09T08:18:13;28.70;99.90
22742;DHT22;11538;48.884;8.696;2023-07-09T08:20:43;28.90;99.90
22742;DHT22;11538;48.884;8.696;2023-07-09T08:23:11;29.10;99.90
22742;DHT22;11538;48.884;8.696;2023-07-09T08:25:38;29.20;99.90
22742;DHT22;11538;48.884;8.696;2023-07-09T08:28:05;29.40;99.90
22742;DHT22;11538;48.884;8.696;2023-07-09T08:30:33;29.60;99.90
22742;DHT22;11538;48.884;8.696;2023-07-09T08:33:00;29.80;99.90
22742;DHT22;11538;48.884;8.696;2023-07-09T08:35:27;30.00;99.90
22742;DHT22;11538;48.884;8.696;2023-07-09T08:38:03;30.10;99.90
22742;DHT22;11538;48.884;8.696;2023-07-09T08:40:31;30.30;99.90
22742;DHT22;11538;48.884;8.696;2023-07-09T08:43:22;30.40;99.90
22742;DHT22;11538;48.884;8.696;2023-07-09T08:49:27;30.80;99.90
22742;DHT22;11538;48.884;8.696;2023-07-09T08:52:02;30.90;99.90
22742;DHT22;11538;48.884;8.696;2023-07-09T08:54:37;31.10;99.90
22742;DHT22;11538;48.884;8.696;2023-07-09T08:57:27;31.20;99.90
22742;DHT22;11538;48.884;8.696;2023-07-09T09:03:03;31.50;99.90
22742;DHT22;11538;48.884;8.696;2023-07-09T09:05:39;31.70;99.90
22742;DHT22;11538;48.884;8.696;2023-07-09T09:13:48;32.10;99.90
22742;DHT22;11538;48.884;8.696;2023-07-09T09:16:28;32.30;99.90
22742;DHT22;11538;48.884;8.696;2023-07-09T09:19:01;32.40;99.90
22742;DHT22;11538;48.884;8.696;2023-07-09T09:21:34;32.50;99.90
22742;DHT22;11538;48.884;8.696;2023-07-09T09:24:17;32.70;99.90
22742;DHT22;11538;48.884;8.696;2023-07-09T09:26:51;32.80;99.90
22742;DHT22;11538;48.884;8.696;2023-07-09T09:29:24;33.00;99.90
22742;DHT22;11538;48.884;8.696;2023-07-09T09:31:56;33.10;99.90
22742;DHT22;11538;48.884;8.696;2023-07-09T09:34:27;33.30;99.90
22742;DHT22;11538;48.884;8.696;2023-07-09T09:36:58;33.40;99.90
22742;DHT22;11538;48.884;8.696;2023-07-09T09:39:26;33.50;99.90
22742;DHT22;11538;48.884;8.696;2023-07-09T09:41:54;33.60;99.90
22742;DHT22;11538;48.884;8.696;2023-07-09T09:44:28;33.80;99.90
22742;DHT22;11538;48.884;8.696;2023-07-09T09:46:56;33.90;99.90
22742;DHT22;11538;48.884;8.696;2023-07-09T09:49:27;34.10;99.90
22742;DHT22;11538;48.884;8.696;2023-07-09T09:51:54;34.20;99.90
22742;DHT22;11538;48.884;8.696;2023-07-09T09:54:27;34.20;99.90
22742;DHT22;11538;48.884;8.696;2023-07-09T09:56:59;34.40;99.90
22742;DHT22;11538;48.884;8.696;2023-07-09T09:59:32;34.50;99.90
22742;DHT22;11538;48.884;8.696;2023-07-09T10:02:16;34.60;99.90
22742;DHT22;11538;48.884;8.696;2023-07-09T10:04:47;34.60;99.90
22742;DHT22;11538;48.884;8.696;2023-07-09T10:07:36;34.70;99.90
22742;DHT22;11538;48.884;8.696;2023-07-09T10:10:14;34.80;99.90
22742;DHT22;11538;48.884;8.696;2023-07-09T10:12:59;35.00;99.90
22742;DHT22;11538;48.884;8.696;2023-07-09T10:27:45;35.60;99.90
22742;DHT22;11538;48.884;8.696;2023-07-09T10:30:39;35.70;99.90
22742;DHT22;11538;48.884;8.696;2023-07-09T10:33:13;35.90;99.90
22742;DHT22;11538;48.884;8.696;2023-07-09T10:35:58;35.90;99.90
22742;DHT22;11538;48.884;8.696;2023-07-09T10:38:59;36.00;99.90
22742;DHT22;11538;48.884;8.696;2023-07-09T10:41:33;36.10;99.90
22742;DHT22;11538;48.884;8.696;2023-07-09T10:44:09;36.30;99.90
22742;DHT22;11538;48.884;8.696;2023-07-09T10:46:45;36.40;99.90
22742;DHT22;11538;48.884;8.696;2023-07-09T10:49:17;36.40;99.90
22742;DHT22;11538;48.884;8.696;2023-07-09T10:51:54;36.50;99.90
22742;DHT22;11538;48.884;8.696;2023-07-09T10:54:34;36.60;99.90
22742;DHT22;11538;48.884;8.696;2023-07-09T10:57:41;36.70;99.90
22742;DHT22;11538;48.884;8.696;2023-07-09T11:00:27;36.80;99.90
22742;DHT22;11538;48.884;8.696;2023-07-09T11:03:05;36.90;99.90
22742;DHT22;11538;48.884;8.696;2023-07-09T11:05:44;37.00;99.90
22742;DHT22;11538;48.884;8.696;2023-07-09T11:08:20;37.00;99.90
22742;DHT22;11538;48.884;8.696;2023-07-09T11:11:01;37.00;99.90
22742;DHT22;11538;48.884;8.696;2023-07-09T11:13:39;37.10;99.90
22742;DHT22;11538;48.884;8.696;2023-07-09T11:16:39;37.30;99.90
22742;DHT22;11538;48.884;8.696;2023-07-09T11:19:18;37.50;99.90
22742;DHT22;11538;48.884;8.696;2023-07-09T11:22:05;37.60;99.90
22742;DHT22;11538;48.884;8.696;2023-07-09T11:25:05;37.80;99.90
22742;DHT22;11538;48.884;8.696;2023-07-09T11:27:32;38.00;99.90
22742;DHT22;11538;48.884;8.696;2023-07-09T11:30:23;38.20;99.90
22742;DHT22;11538;48.884;8.696;2023-07-09T11:32:54;38.50;99.90
22742;DHT22;11538;48.884;8.696;2023-07-09T11:35:51;38.70;99.90
22742;DHT22;11538;48.884;8.696;2023-07-09T11:38:23;39.10;99.90
22742;DHT22;11538;48.884;8.696;2023-07-09T11:40:55;39.30;99.90
22742;DHT22;11538;48.884;8.696;2023-07-09T11:43:32;39.50;99.90
22742;DHT22;11538;48.884;8.696;2023-07-09T11:46:18;39.70;99.90
22742;DHT22;11538;48.884;8.696;2023-07-09T11:48:51;40.10;99.90
22742;DHT22;11538;48.884;8.696;2023-07-09T11:51:50;40.30;99.90
22742;DHT22;11538;48.884;8.696;2023-07-09T11:54:21;40.60;99.90
22742;DHT22;11538;48.884;8.696;2023-07-09T11:56:59;40.60;99.90
22742;DHT22;11538;48.884;8.696;2023-07-09T11:59:46;40.50;99.90
22742;DHT22;11538;48.884;8.696;2023-07-09T12:02:20;40.60;99.90
22742;DHT22;11538;48.884;8.696;2023-07-09T12:04:50;40.70;99.90
22742;DHT22;11538;48.884;8.696;2023-07-09T12:07:20;40.70;99.90
22742;DHT22;11538;48.884;8.696;2023-07-09T12:09:51;40.60;99.90
22742;DHT22;11538;48.884;8.696;2023-07-09T12:12:20;40.80;99.90
22742;DHT22;11538;48.884;8.696;2023-07-09T12:14:50;41.10;99.90
22742;DHT22;11538;48.884;8.696;2023-07-09T12:17:18;41.30;99.90
22742;DHT22;11538;48.884;8.696;2023-07-09T12:19:45;41.60;99.90
22742;DHT22;11538;48.884;8.696;2023-07-09T12:22:21;41.80;99.90
22742;DHT22;11538;48.884;8.696;2023-07-09T12:24:49;41.90;99.90
22742;DHT22;11538;48.884;8.696;2023-07-09T12:27:26;42.00;99.90
22742;DHT22;11538;48.884;8.696;2023-07-09T12:29:56;42.20;99.90
22742;DHT22;11538;48.884;8.696;2023-07-09T12:32:24;42.40;99.90
22742;DHT22;11538;48.884;8.696;2023-07-09T12:34:55;42.40;99.90
22742;DHT22;11538;48.884;8.696;2023-07-09T12:37:25;42.50;99.90
22742;DHT22;11538;48.884;8.696;2023-07-09T12:39:59;42.70;99.90
22742;DHT22;11538;48.884;8.696;2023-07-09T12:42:36;42.60;99.90
22742;DHT22;11538;48.884;8.696;2023-07-09T12:45:05;42.50;99.90
22742;DHT22;11538;48.884;8.696;2023-07-09T12:47:39;42.50;99.90
22742;DHT22;11538;48.884;8.696;2023-07-09T12:53:20;42.70;99.90
22742;DHT22;11538;48.884;8.696;2023-07-09T12:55:55;43.00;99.90
22742;DHT22;11538;48.884;8.696;2023-07-09T12:58:27;43.20;99.90
22742;DHT22;11538;48.884;8.696;2023-07-09T13:01:00;43.10;99.90
22742;DHT22;11538;48.884;8.696;2023-07-09T13:03:34;43.00;99.90
22742;DHT22;11538;48.884;8.696;2023-07-09T13:06:04;42.90;99.90
22742;DHT22;11538;48.884;8.696;2023-07-09T13:08:58;42.80;99.90
22742;DHT22;11538;48.884;8.696;2023-07-09T13:11:34;42.70;99.90
22742;DHT22;11538;48.884;8.696;2023-07-09T13:14:05;42.80;99.90
22742;DHT22;11538;48.884;8.696;2023-07-09T13:17:03;42.70;99.90
22742;DHT22;11538;48.884;8.696;2023-07-09T13:19:34;42.70;99.90
22742;DHT22;11538;48.884;8.696;2023-07-09T13:22:01;42.50;99.90
22742;DHT22;11538;48.884;8.696;2023-07-09T13:24:31;42.50;99.90
22742;DHT22;11538;48.884;8.696;2023-07-09T13:27:02;42.50;99.90
22742;DHT22;11538;48.884;8.696;2023-07-09T13:29:31;42.30;99.90
22742;DHT22;11538;48.884;8.696;2023-07-09T13:32:00;42.30;99.90
22742;DHT22;11538;48.884;8.696;2023-07-09T13:34:30;42.30;99.90
22742;DHT22;11538;48.884;8.696;2023-07-09T13:37:01;42.40;99.90
22742;DHT22;11538;48.884;8.696;2023-07-09T13:39:29;42.30;99.90
22742;DHT22;11538;48.884;8.696;2023-07-09T13:41:55;42.20;99.90
22742;DHT22;11538;48.884;8.696;2023-07-09T13:44:25;42.00;99.90
22742;DHT22;11538;48.884;8.696;2023-07-09T13:46:54;41.80;99.90
22742;DHT22;11538;48.884;8.696;2023-07-09T13:49:24;41.80;99.90
22742;DHT22;11538;48.884;8.696;2023-07-09T13:51:58;41.70;99.90
22742;DHT22;11538;48.884;8.696;2023-07-09T13:54:29;41.50;99.90
22742;DHT22;11538;48.884;8.696;2023-07-09T13:57:06;41.60;99.90
22742;DHT22;11538;48.884;8.696;2023-07-09T13:59:39;41.50;99.90
22742;DHT22;11538;48.884;8.696;2023-07-09T14:04:47;41.50;99.90
22742;DHT22;11538;48.884;8.696;2023-07-09T14:07:29;41.50;99.90
22742;DHT22;11538;48.884;8.696;2023-07-09T14:09:59;41.20;99.90
22742;DHT22;11538;48.884;8.696;2023-07-09T14:12:28;40.90;99.90
22742;DHT22;11538;48.884;8.696;2023-07-09T14:14:58;40.60;99.90
22742;DHT22;11538;48.884;8.696;2023-07-09T14:17:27;40.60;99.90
22742;DHT22;11538;48.884;8.696;2023-07-09T14:19:54;40.50;99.90
22742;DHT22;11538;48.884;8.696;2023-07-09T14:22:30;40.50;99.90
22742;DHT22;11538;48.884;8.696;2023-07-09T14:25:01;40.60;99.90
22742;DHT22;11538;48.884;8.696;2023-07-09T14:27:29;40.70;99.90
22742;DHT22;11538;48.884;8.696;2023-07-09T14:29:56;40.80;99.90
22742;DHT22;11538;48.884;8.696;2023-07-09T14:32:36;40.80;99.90
22742;DHT22;11538;48.884;8.696;2023-07-09T14:35:20;40.80;99.90
22742;DHT22;11538;48.884;8.696;2023-07-09T14:37:51;40.80;99.90
22742;DHT22;11538;48.884;8.696;2023-07-09T14:40:21;40.70;99.90
22742;DHT22;11538;48.884;8.696;2023-07-09T14:42:49;40.60;99.90
22742;DHT22;11538;48.884;8.696;2023-07-09T14:45:26;40.60;99.90
22742;DHT22;11538;48.884;8.696;2023-07-09T14:47:56;40.80;99.90
22742;DHT22;11538;48.884;8.696;2023-07-09T14:50:24;40.80;99.90
22742;DHT22;11538;48.884;8.696;2023-07-09T14:52:52;40.80;99.90
22742;DHT22;11538;48.884;8.696;2023-07-09T14:55:21;40.80;99.90
22742;DHT22;11538;48.884;8.696;2023-07-09T14:57:51;40.70;99.90
22742;DHT22;11538;48.884;8.696;2023-07-09T15:00:20;40.50;99.90
22742;DHT22;11538;48.884;8.696;2023-07-09T15:02:53;40.30;99.90
22742;DHT22;11538;48.884;8.696;2023-07-09T15:05:23;40.00;99.90
22742;DHT22;11538;48.884;8.696;2023-07-09T15:07:51;39.80;99.90
22742;DHT22;11538;48.884;8.696;2023-07-09T15:10:23;39.60;99.90
22742;DHT22;11538;48.884;8.696;2023-07-09T15:12:55;39.40;99.90
22742;DHT22;11538;48.884;8.696;2023-07-09T15:15:24;39.20;99.90
22742;DHT22;11538;48.884;8.696;2023-07-09T15:17:52;38.90;99.90
22742;DHT22;11538;48.884;8.696;2023-07-09T15:20:22;38.70;99.90
22742;DHT22;11538;48.884;8.696;2023-07-09T15:22:51;38.50;99.90
22742;DHT22;11538;48.884;8.696;2023-07-09T15:25:27;38.30;99.90
22742;DHT22;11538;48.884;8.696;2023-07-09T15:27:55;38.10;99.90
22742;DHT22;11538;48.884;8.696;2023-07-09T15:30:28;37.90;99.90
22742;DHT22;11538;48.884;8.696;2023-07-09T15:32:58;37.70;99.90
22742;DHT22;11538;48.884;8.696;2023-07-09T15:35:36;37.60;99.90
22742;DHT22;11538;48.884;8.696;2023-07-09T15:40:47;37.30;99.90
22742;DHT22;11538;48.884;8.696;2023-07-09T15:43:15;37.20;99.90
22742;DHT22;11538;48.884;8.696;2023-07-09T15:45:45;37.00;99.90
22742;DHT22;11538;48.884;8.696;2023-07-09T15:48:27;36.80;99.90
22742;DHT22;11538;48.884;8.696;2023-07-09T15:50:59;36.70;99.90
22742;DHT22;11538;48.884;8.696;2023-07-09T15:53:31;36.60;99.90
22742;DHT22;11538;48.884;8.696;2023-07-09T15:56:00;36.40;99.90
22742;DHT22;11538;48.884;8.696;2023-07-09T15:58:38;36.30;99.90
22742;DHT22;11538;48.884;8.696;2023-07-09T16:01:11;36.20;99.90
22742;DHT22;11538;48.884;8.696;2023-07-09T16:04:08;36.10;99.90
22742;DHT22;11538;48.884;8.696;2023-07-09T16:06:36;36.00;99.90
22742;DHT22;11538;48.884;8.696;2023-07-09T16:09:06;35.90;99.90
22742;DHT22;11538;48.884;8.696;2023-07-09T16:11:33;35.80;99.90
22742;DHT22;11538;48.884;8.696;2023-07-09T16:14:22;35.70;99.90
22742;DHT22;11538;48.884;8.696;2023-07-09T16:16:53;35.60;99.90
22742;DHT22;11538;48.884;8.696;2023-07-09T16:19:26;35.50;99.90
22742;DHT22;11538;48.884;8.696;2023-07-09T16:21:59;35.40;99.90
22742;DHT22;11538;48.884;8.696;2023-07-09T16:24:35;35.30;99.90
22742;DHT22;11538;48.884;8.696;2023-07-09T16:27:05;35.30;99.90
22742;DHT22;11538;48.884;8.696;2023-07-09T16:29:35;35.20;99.90
22742;DHT22;11538;48.884;8.696;2023-07-09T16:32:02;35.10;99.90
22742;DHT22;11538;48.884;8.696;2023-07-09T16:34:31;35.10;99.90